createdAt,value
2022-09-12T00:03:01.834Z,18.20
2022-09-12T00:08:04.735Z,20.58
2022-09-12T00:13:09.483Z,18.20
2022-09-12T00:18:15.814Z,21.73
2022-09-12T00:23:18.527Z,20.33
2022-09-12T00:28:22.586Z,19.42
2022-09-12T00:33:25.321Z,19.33
2022-09-12T00:38:28.012Z,19.85
2022-09-12T00:43:40.736Z,18.27
2022-09-12T00:48:45.754Z,17.10
2022-09-12T00:53:50.194Z,17.00
2022-09-12T00:58:58.158Z,15.45
2022-09-12T01:04:01.329Z,17.95
2022-09-12T01:09:05.206Z,15.50
2022-09-12T01:14:10.113Z,13.57
2022-09-12T01:19:26.705Z,16.35
2022-09-12T01:24:43.191Z,14.32
2022-09-12T01:30:04.498Z,14.18
2022-09-12T01:35:16.735Z,15.52
2022-09-12T01:40:23.306Z,15.45
2022-09-12T01:45:29.882Z,14.40
2022-09-12T01:50:37.140Z,13.50
2022-09-12T01:55:43.436Z,13.35
2022-09-12T02:00:49.448Z,14.38
2022-09-12T02:05:56.416Z,13.80
2022-09-12T02:11:01.715Z,11.85
2022-09-12T02:16:08.713Z,12.50
2022-09-12T02:21:13.213Z,13.43
2022-09-12T02:26:22.374Z,12.93
2022-09-12T02:31:30.864Z,13.32
2022-09-12T02:36:40.610Z,12.73
2022-09-12T02:41:43.389Z,10.80
2022-09-12T02:46:48.598Z,11.95
2022-09-12T02:51:52.666Z,10.00
2022-09-12T02:56:55.440Z,10.85
2022-09-12T03:02:07.077Z,8.90
2022-09-12T03:07:17.276Z,9.15
2022-09-12T03:12:28.023Z,8.82
2022-09-12T03:17:36.440Z,9.70
2022-09-12T03:22:47.089Z,9.05
2022-09-12T03:27:57.191Z,9.38
2022-09-12T03:32:59.870Z,8.60
2022-09-12T03:38:03.945Z,8.50
2022-09-12T03:43:07.908Z,9.07
2022-09-12T03:48:10.620Z,8.95
2022-09-12T03:53:17.264Z,8.55
2022-09-12T03:58:20.303Z,8.82
2022-09-12T04:03:22.986Z,8.32
2022-09-12T04:08:27.242Z,8.07
2022-09-12T04:13:29.873Z,7.82
2022-09-12T04:18:33.452Z,7.03
2022-09-12T04:23:37.933Z,7.45
2022-09-12T04:28:41.061Z,8.52
2022-09-12T04:33:43.766Z,8.57
2022-09-12T04:38:48.999Z,7.78
2022-09-12T04:43:54.540Z,6.75
2022-09-12T04:48:57.347Z,7.18
2022-09-12T04:54:02.704Z,7.70
2022-09-12T04:59:05.426Z,6.43
2022-09-12T05:04:08.171Z,7.93
2022-09-12T05:09:14.145Z,6.95
2022-09-12T05:14:16.875Z,6.15
2022-09-12T05:19:19.879Z,6.53
2022-09-12T05:24:24.603Z,6.13
2022-09-12T05:29:27.323Z,6.68
2022-09-12T05:34:30.056Z,6.88
2022-09-12T05:39:34.177Z,6.30
2022-09-12T05:44:36.954Z,5.80
2022-09-12T05:49:39.643Z,7.40
2022-09-12T05:54:43.922Z,6.38
2022-09-12T05:59:46.576Z,5.72
2022-09-12T06:04:49.408Z,6.68
2022-09-12T06:09:53.667Z,6.20
2022-09-12T06:14:56.496Z,5.28
2022-09-12T06:19:59.238Z,5.88
2022-09-12T06:25:03.324Z,7.43
2022-09-12T06:30:07.466Z,5.53
2022-09-12T06:35:10.332Z,5.35
2022-09-12T06:40:14.492Z,5.88
2022-09-12T06:45:19.887Z,6.03
2022-09-12T06:50:22.595Z,6.57
2022-09-12T06:55:27.856Z,5.50
2022-09-12T07:00:31.310Z,5.45
2022-09-12T07:05:35.122Z,6.13
2022-09-12T07:10:39.160Z,5.38
2022-09-12T07:15:41.897Z,7.07
2022-09-12T07:20:44.659Z,4.70
2022-09-12T07:25:57.074Z,6.00
2022-09-12T07:31:02.533Z,5.25
2022-09-12T07:36:06.575Z,5.22
2022-09-12T07:41:14.336Z,4.50
2022-09-12T07:46:17.035Z,5.60
2022-09-12T07:51:20.242Z,5.93
2022-09-12T07:56:29.375Z,6.82
2022-09-12T08:01:33.139Z,5.47
2022-09-12T08:06:36.966Z,6.60
2022-09-12T08:11:41.077Z,5.97
2022-09-12T08:16:44.518Z,5.15
2022-09-12T08:21:47.273Z,5.68
2022-09-12T08:26:51.415Z,5.50
2022-09-12T08:31:57.281Z,4.88
2022-09-12T08:37:00.221Z,5.03
2022-09-12T08:42:06.183Z,6.03
2022-09-12T08:47:21.062Z,9.07
2022-09-12T08:52:28.270Z,5.25
2022-09-12T08:57:32.468Z,6.13
2022-09-12T09:02:53.631Z,4.82
2022-09-12T09:08:15.554Z,5.13
2022-09-12T09:13:45.623Z,5.13
2022-09-12T09:18:49.540Z,5.50
2022-09-12T09:23:56.042Z,4.30
2022-09-12T09:29:03.245Z,4.47
2022-09-12T09:34:11.959Z,5.63
2022-09-12T09:39:22.253Z,7.20
2022-09-12T09:44:36.527Z,5.60
2022-09-12T09:49:39.707Z,4.75
2022-09-12T09:54:45.963Z,6.55
2022-09-12T09:59:50.029Z,4.28
2022-09-12T10:04:55.754Z,3.97
2022-09-12T10:10:07.511Z,4.47
2022-09-12T10:15:21.306Z,4.68
2022-09-12T10:20:32.705Z,5.50
2022-09-12T10:25:35.484Z,4.53
2022-09-12T10:30:40.094Z,7.10
2022-09-12T10:35:48.627Z,4.22
2022-09-12T10:40:58.028Z,4.72
2022-09-12T10:46:29.015Z,5.07
2022-09-12T10:51:31.835Z,4.97
2022-09-12T10:56:37.580Z,4.45
2022-09-12T11:01:44.229Z,4.25
2022-09-12T11:06:57.393Z,5.20
2022-09-12T11:12:06.056Z,3.95
2022-09-12T11:17:19.821Z,3.65
2022-09-12T11:22:37.170Z,4.65
2022-09-12T11:27:53.538Z,4.35
2022-09-12T11:33:09.219Z,5.53
2022-09-12T11:38:43.163Z,4.10
2022-09-12T11:43:49.219Z,3.90
2022-09-12T11:48:56.793Z,4.60
2022-09-12T11:54:05.111Z,3.65
2022-09-12T11:59:14.874Z,3.90
2022-09-12T12:04:22.967Z,4.40
2022-09-12T12:09:25.823Z,4.00
2022-09-12T12:14:32.873Z,4.93
2022-09-12T12:19:38.059Z,4.72
2022-09-12T12:24:55.800Z,4.00
2022-09-12T12:29:58.693Z,5.88
2022-09-12T12:35:42.742Z,3.92
2022-09-12T12:40:45.529Z,3.58
2022-09-12T12:46:12.875Z,3.70
2022-09-12T12:51:45.053Z,3.75
2022-09-12T12:56:49.995Z,3.60
2022-09-12T13:01:58.777Z,4.53
2022-09-12T13:07:11.273Z,3.08
2022-09-12T13:12:21.060Z,3.40
2022-09-12T13:17:28.373Z,3.22
2022-09-12T13:22:51.087Z,4.80
2022-09-12T13:28:04.799Z,3.63
2022-09-12T13:33:16.504Z,4.07
2022-09-12T13:38:35.246Z,2.80
2022-09-12T13:43:41.169Z,3.83
2022-09-12T13:48:45.244Z,2.90
2022-09-12T13:53:50.876Z,3.00
2022-09-12T13:58:57.863Z,3.15
2022-09-12T14:04:21.168Z,3.17
2022-09-12T14:09:28.870Z,3.30
2022-09-12T14:14:35.989Z,3.65
2022-09-12T14:19:38.792Z,3.58
2022-09-12T14:24:42.952Z,3.65
2022-09-12T14:29:46.080Z,3.88
2022-09-12T14:35:19.790Z,3.17
2022-09-12T14:40:24.818Z,3.25
2022-09-12T14:45:30.919Z,3.47
2022-09-12T14:50:36.484Z,3.50
2022-09-12T14:55:46.574Z,3.67
2022-09-12T15:00:57.733Z,3.05
2022-09-12T15:06:02.780Z,3.72
2022-09-12T15:11:07.579Z,3.38
2022-09-12T15:16:11.503Z,3.40
2022-09-12T15:21:18.603Z,3.10
2022-09-12T15:26:24.427Z,3.10
2022-09-12T15:31:28.913Z,2.90
2022-09-12T15:36:31.911Z,3.85
2022-09-12T15:41:37.860Z,4.03
2022-09-12T15:46:41.035Z,3.47
2022-09-12T15:51:43.752Z,3.40
2022-09-12T15:56:47.836Z,3.03
2022-09-12T16:01:50.637Z,3.75
2022-09-12T16:06:54.184Z,3.40
2022-09-12T16:11:58.311Z,3.38
2022-09-12T16:17:01.713Z,3.65
2022-09-12T16:22:04.415Z,3.00
2022-09-12T16:27:08.561Z,3.05
2022-09-12T16:32:11.422Z,4.40
2022-09-12T16:37:14.196Z,4.07
2022-09-12T16:42:19.264Z,3.55
2022-09-12T16:47:22.092Z,2.92
2022-09-12T16:52:28.385Z,3.42
2022-09-12T16:57:39.546Z,3.85
2022-09-12T17:02:44.984Z,3.45
2022-09-12T17:07:50.163Z,3.47
2022-09-12T17:12:54.467Z,3.08
2022-09-12T17:18:00.307Z,4.47
2022-09-12T17:23:09.489Z,3.22
2022-09-12T17:28:18.649Z,3.58
2022-09-12T17:33:24.825Z,4.53
2022-09-12T17:38:28.670Z,5.47
2022-09-12T17:43:33.481Z,3.75
2022-09-12T17:48:36.490Z,2.72
2022-09-12T17:53:39.289Z,4.45
2022-09-12T17:58:43.363Z,3.63
2022-09-12T18:03:46.459Z,3.20
2022-09-12T18:08:49.214Z,5.47
2022-09-12T18:13:53.304Z,3.97
2022-09-12T18:19:01.339Z,4.43
2022-09-12T18:24:05.388Z,3.90
2022-09-12T18:29:09.605Z,3.92
2022-09-12T18:34:13.823Z,5.28
2022-09-12T18:39:17.861Z,4.53
2022-09-12T18:44:21.938Z,6.18
2022-09-12T18:49:24.719Z,54.13
2022-09-12T18:54:27.420Z,33.17
2022-09-12T18:59:31.519Z,130.55
2022-09-12T19:04:34.240Z,61.35
2022-09-12T19:09:36.974Z,61.42
2022-09-12T19:14:41.091Z,35.10
2022-09-12T19:19:43.770Z,31.33
2022-09-12T19:24:46.512Z,22.65
2022-09-12T19:29:50.623Z,22.52
2022-09-12T19:34:53.370Z,19.95
2022-09-12T19:39:56.628Z,15.07
2022-09-12T19:45:00.801Z,18.05
2022-09-12T19:50:03.686Z,16.45
2022-09-12T19:55:07.230Z,12.73
2022-09-12T20:00:12.855Z,11.60
2022-09-12T20:05:15.610Z,12.25
2022-09-12T20:10:18.512Z,12.05
2022-09-12T20:15:22.541Z,9.93
2022-09-12T20:20:26.640Z,12.13
2022-09-12T20:25:29.373Z,8.70
2022-09-12T20:30:33.443Z,10.30
2022-09-12T20:35:36.138Z,10.10
2022-09-12T20:40:38.819Z,8.32
2022-09-12T20:45:42.924Z,6.85
2022-09-12T20:50:45.696Z,6.95
2022-09-12T20:55:51.553Z,8.25
2022-09-12T21:00:55.643Z,7.57
2022-09-12T21:05:58.786Z,5.25
2022-09-12T21:11:02.083Z,7.85
2022-09-12T21:16:07.901Z,6.60
2022-09-12T21:21:11.374Z,5.60
2022-09-12T21:26:14.063Z,7.57
2022-09-12T21:31:18.279Z,5.50
2022-09-12T21:36:21.016Z,5.45
2022-09-12T21:41:23.849Z,5.25
2022-09-12T21:46:28.031Z,3.97
2022-09-12T21:51:30.934Z,4.85
2022-09-12T21:56:33.700Z,5.53
2022-09-12T22:01:37.881Z,4.85
2022-09-12T22:06:40.629Z,4.60
2022-09-12T22:11:43.839Z,4.47
2022-09-12T22:16:48.000Z,4.65
2022-09-12T22:22:07.535Z,4.53
2022-09-12T22:27:10.350Z,4.88
2022-09-12T22:32:14.588Z,3.50
2022-09-12T22:37:17.834Z,4.85
2022-09-12T22:42:20.571Z,4.35
2022-09-12T22:47:24.763Z,5.65
2022-09-12T22:52:29.632Z,4.90
2022-09-12T22:57:32.345Z,3.58
2022-09-12T23:02:36.369Z,3.83
2022-09-12T23:07:39.092Z,4.47
2022-09-12T23:12:41.784Z,3.78
2022-09-12T23:17:45.860Z,4.13
2022-09-12T23:22:50.964Z,5.47
2022-09-12T23:27:53.960Z,3.90
2022-09-12T23:32:58.183Z,3.78
2022-09-12T23:38:00.855Z,4.18
2022-09-12T23:43:03.526Z,3.38
2022-09-12T23:48:07.686Z,4.03
2022-09-12T23:53:10.747Z,3.28
2022-09-12T23:58:14.792Z,3.75
